createdAt,value
2022-10-19T00:02:25.204Z,100260.44
2022-10-19T00:07:27.061Z,100263.84
2022-10-19T00:12:29.039Z,100267.73
2022-10-19T00:17:31.161Z,100259.52
2022-10-19T00:22:33.408Z,100257.94
2022-10-19T00:27:35.491Z,100253.39
2022-10-19T00:32:37.369Z,100252.64
2022-10-19T00:37:39.246Z,100250.98
2022-10-19T00:42:41.124Z,100250.67
2022-10-19T00:47:44.433Z,100243.65
2022-10-19T00:52:46.624Z,100243.53
2022-10-19T00:57:48.580Z,100238.97
2022-10-19T01:02:50.473Z,100235.46
2022-10-19T01:07:52.760Z,100239.57
2022-10-19T01:13:14.304Z,100236.78
2022-10-19T01:18:25.292Z,100228.63
2022-10-19T01:23:27.169Z,100227.26
2022-10-19T01:28:45.461Z,100220.17
2022-10-19T01:33:55.603Z,100223.42
2022-10-19T01:39:17.856Z,100227.27
2022-10-19T01:44:47.790Z,100222.36
2022-10-19T01:49:56.937Z,100218.14
2022-10-19T01:55:01.786Z,100218.62
2022-10-19T02:00:07.759Z,100213.70
2022-10-19T02:05:12.094Z,100211.36
2022-10-19T02:15:20.764Z,100220.69
2022-10-19T02:20:23.356Z,100217.42
2022-10-19T02:25:25.749Z,100217.80
2022-10-19T02:30:28.137Z,100205.29
2022-10-19T02:35:30.729Z,100197.58
2022-10-19T02:40:37.930Z,100202.84
2022-10-19T02:46:21.899Z,100201.19
2022-10-19T02:52:00.636Z,100196.73
2022-10-19T02:57:13.368Z,100196.63
2022-10-19T03:02:16.781Z,100192.10
2022-10-19T03:07:20.875Z,100188.11
2022-10-19T03:12:22.788Z,100185.94
2022-10-19T03:17:24.668Z,100193.63
2022-10-19T03:22:26.542Z,100192.33
2022-10-19T03:27:28.424Z,100187.56
2022-10-19T03:32:30.296Z,100190.48
2022-10-19T03:37:32.430Z,100196.08
2022-10-19T03:42:34.667Z,100193.34
2022-10-19T03:47:36.672Z,100197.31
2022-10-19T03:52:38.729Z,100195.46
2022-10-19T03:57:40.605Z,100197.80
2022-10-19T04:02:42.488Z,100191.92
2022-10-19T04:07:44.256Z,100188.94
2022-10-19T04:12:48.465Z,100181.05
2022-10-19T04:17:55.237Z,100185.09
2022-10-19T04:22:57.160Z,100181.02
2022-10-19T04:27:59.036Z,100182.86
2022-10-19T04:33:00.914Z,100182.67
2022-10-19T04:38:02.790Z,100181.79
2022-10-19T04:43:05.136Z,100181.61
2022-10-19T04:48:07.057Z,100185.49
2022-10-19T04:53:09.039Z,100186.50
2022-10-19T04:58:10.915Z,100181.80
2022-10-19T05:03:13.305Z,100180.30
2022-10-19T05:08:15.406Z,100174.58
2022-10-19T05:13:17.262Z,100172.40
2022-10-19T05:18:19.138Z,100171.40
2022-10-19T05:23:21.032Z,100177.08
2022-10-19T05:28:22.997Z,100183.47
2022-10-19T05:33:24.978Z,100196.48
2022-10-19T05:38:29.416Z,100209.52
2022-10-19T05:43:31.391Z,100220.05
2022-10-19T05:48:35.112Z,100224.01
2022-10-19T05:58:45.117Z,100229.66
2022-10-19T06:03:51.399Z,100238.17
2022-10-19T06:08:55.627Z,100244.73
2022-10-19T06:13:58.633Z,100247.26
2022-10-19T06:19:01.225Z,100252.80
2022-10-19T06:24:05.047Z,100260.91
2022-10-19T06:29:06.924Z,100263.79
2022-10-19T06:34:08.911Z,100263.98
2022-10-19T06:39:11.294Z,100266.32
2022-10-19T06:44:13.176Z,100276.03
2022-10-19T06:49:15.252Z,100281.54
2022-10-19T06:54:17.236Z,100297.51
2022-10-19T06:59:19.213Z,100307.08
2022-10-19T07:04:21.196Z,100309.27
2022-10-19T07:09:23.069Z,100323.23
2022-10-19T07:14:27.915Z,100332.27
2022-10-19T07:19:29.997Z,100334.98
2022-10-19T07:24:31.874Z,100347.25
2022-10-19T07:29:34.057Z,100356.76
2022-10-19T07:34:35.941Z,100358.48
2022-10-19T07:39:37.916Z,100370.34
2022-10-19T07:44:39.791Z,100378.66
2022-10-19T07:49:41.679Z,100385.83
2022-10-19T07:54:43.546Z,100393.05
2022-10-19T07:59:45.423Z,100392.45
2022-10-19T08:05:06.258Z,100413.78
2022-10-19T08:10:09.969Z,100406.90
2022-10-19T08:15:11.948Z,100414.18
2022-10-19T08:20:13.822Z,100416.67
2022-10-19T08:25:15.703Z,100429.02
2022-10-19T08:30:17.781Z,100423.06
2022-10-19T08:35:19.660Z,100421.84
2022-10-19T08:40:28.397Z,100433.70
2022-10-19T08:45:39.388Z,100422.91
2022-10-19T08:50:44.336Z,100424.95
2022-10-19T08:55:49.799Z,100428.65
2022-10-19T09:01:06.625Z,100434.20
2022-10-19T09:06:51.818Z,100440.82
2022-10-19T09:12:02.309Z,100443.34
2022-10-19T09:17:13.700Z,100453.11
2022-10-19T09:22:32.113Z,100462.65
2022-10-19T09:27:44.181Z,100465.52
2022-10-19T09:32:48.378Z,100466.48
2022-10-19T09:37:50.909Z,100476.29
2022-10-19T09:42:57.548Z,100475.87
2022-10-19T09:48:10.045Z,100487.58
2022-10-19T09:53:20.091Z,100495.08
2022-10-19T09:58:29.146Z,100510.30
2022-10-19T10:03:38.924Z,100507.36
2022-10-19T10:08:46.339Z,100516.29
2022-10-19T10:13:52.325Z,100520.30
2022-10-19T10:18:58.044Z,100529.81
2022-10-19T10:24:16.406Z,100536.25
2022-10-19T10:29:24.325Z,100530.30
2022-10-19T10:34:50.966Z,100537.10
2022-10-19T10:39:58.995Z,100537.21
2022-10-19T10:45:14.806Z,100568.42
2022-10-19T10:50:31.558Z,100572.19
2022-10-19T10:55:34.126Z,100566.77
2022-10-19T11:00:39.726Z,100562.96
2022-10-19T11:05:47.150Z,100559.30
2022-10-19T11:11:00.135Z,100566.84
2022-10-19T11:16:26.588Z,100570.06
2022-10-19T11:22:06.151Z,100582.18
2022-10-19T11:27:26.151Z,100574.34
2022-10-19T11:33:01.106Z,100568.73
2022-10-19T11:38:20.107Z,100562.29
2022-10-19T11:43:46.742Z,100555.35
2022-10-19T11:49:11.044Z,100561.77
2022-10-19T11:54:30.741Z,100554.08
2022-10-19T11:59:47.871Z,100573.20
2022-10-19T12:05:00.810Z,100601.27
2022-10-19T12:10:16.409Z,100584.79
2022-10-19T12:15:23.190Z,100576.75
2022-10-19T12:20:24.976Z,100579.23
2022-10-19T12:25:28.184Z,100579.23
2022-10-19T12:30:30.368Z,100577.40
2022-10-19T12:35:48.529Z,100590.28
2022-10-19T12:41:07.406Z,100586.67
2022-10-19T12:46:27.712Z,100596.58
2022-10-19T12:51:43.822Z,100587.80
2022-10-19T12:56:49.333Z,100590.54
2022-10-19T13:01:54.040Z,100607.56
2022-10-19T13:07:07.787Z,100630.77
2022-10-19T13:12:19.933Z,100637.02
2022-10-19T13:17:36.731Z,100624.04
2022-10-19T13:22:39.632Z,100628.84
2022-10-19T13:27:42.840Z,100634.55
2022-10-19T13:32:45.439Z,100641.89
2022-10-19T13:38:16.291Z,100634.04
2022-10-19T13:43:25.106Z,100644.32
2022-10-19T13:48:52.914Z,100639.51
2022-10-19T13:57:23.587Z,100647.95
2022-10-19T14:02:26.694Z,100643.23
2022-10-19T14:07:37.791Z,100655.92
2022-10-19T14:12:43.311Z,100658.27
2022-10-19T14:17:46.556Z,100666.31
2022-10-19T14:22:49.765Z,100677.10
2022-10-19T14:28:06.642Z,100671.40
2022-10-19T14:33:14.824Z,100679.94
2022-10-19T14:38:28.187Z,100681.13
2022-10-19T14:43:34.498Z,100687.75
2022-10-19T14:48:45.662Z,100692.46
2022-10-19T14:54:11.690Z,100704.06
2022-10-19T14:59:32.647Z,100708.63
2022-10-19T15:04:38.887Z,100713.76
2022-10-19T15:09:50.602Z,100726.97
2022-10-19T15:14:54.627Z,100735.79
2022-10-19T15:20:04.527Z,100727.36
2022-10-19T15:25:07.905Z,100723.77
2022-10-19T15:30:28.674Z,100735.65
2022-10-19T15:35:38.648Z,100736.20
2022-10-19T15:40:44.048Z,100737.67
2022-10-19T15:45:47.464Z,100746.80
2022-10-19T15:50:54.627Z,100754.58
2022-10-19T15:55:58.836Z,100747.06
2022-10-19T16:01:02.413Z,100753.42
2022-10-19T16:06:06.295Z,100760.99
2022-10-19T16:11:13.672Z,100760.70
2022-10-19T16:16:24.012Z,100765.92
2022-10-19T16:21:34.087Z,100762.37
2022-10-19T16:26:37.502Z,100771.29
2022-10-19T16:31:40.917Z,100774.09
2022-10-19T16:36:44.126Z,100781.21
2022-10-19T16:41:47.333Z,100787.79
2022-10-19T16:46:50.822Z,100787.83
2022-10-19T16:51:57.192Z,100791.63
2022-10-19T16:57:02.225Z,100792.56
2022-10-19T17:02:07.436Z,100800.33
2022-10-19T17:07:11.872Z,100800.07
2022-10-19T17:12:15.094Z,100809.81
2022-10-19T17:17:18.349Z,100814.32
2022-10-19T17:22:21.600Z,100824.55
2022-10-19T17:27:24.963Z,100836.84
2022-10-19T17:32:29.502Z,100842.73
2022-10-19T17:37:32.990Z,100842.39
2022-10-19T17:42:36.995Z,100839.92
2022-10-19T17:47:40.181Z,100837.59
2022-10-19T17:52:43.410Z,100835.27
2022-10-19T17:57:46.619Z,100840.92
2022-10-19T18:02:49.879Z,100847.02
2022-10-19T18:07:54.067Z,100854.02
2022-10-19T18:12:57.782Z,100860.23
2022-10-19T18:18:01.306Z,100861.06
2022-10-19T18:23:04.709Z,100867.95
2022-10-19T18:28:08.428Z,100867.02
2022-10-19T18:33:11.636Z,100871.27
2022-10-19T18:38:14.844Z,100878.73
2022-10-19T18:43:18.256Z,100880.30
2022-10-19T18:48:25.562Z,100883.98
2022-10-19T18:53:30.616Z,100887.95
2022-10-19T18:58:39.568Z,100886.55
2022-10-19T19:04:08.365Z,100884.80
2022-10-19T19:09:12.395Z,100881.36
2022-10-19T19:14:18.717Z,100893.52
2022-10-19T19:19:24.596Z,100886.26
2022-10-19T19:24:31.853Z,100891.80
2022-10-19T19:29:35.265Z,100894.66
2022-10-19T19:34:38.778Z,100898.45
2022-10-19T19:39:42.094Z,100901.52
2022-10-19T19:44:45.297Z,100903.75
2022-10-19T19:49:48.506Z,100918.71
2022-10-19T19:54:51.885Z,100922.20
2022-10-19T19:59:55.228Z,100926.20
2022-10-19T20:04:58.542Z,100929.81
2022-10-19T20:10:01.866Z,100932.84
2022-10-19T20:15:05.675Z,100944.23
2022-10-19T20:20:10.300Z,100944.36
2022-10-19T20:25:14.038Z,100950.92
2022-10-19T20:30:17.564Z,100949.66
2022-10-19T20:35:20.723Z,100955.31
2022-10-19T20:40:23.935Z,100959.88
2022-10-19T20:45:27.074Z,100954.92
2022-10-19T20:50:30.285Z,100959.37
2022-10-19T20:55:34.005Z,100971.10
2022-10-19T21:00:37.214Z,100971.85
2022-10-19T21:05:40.425Z,100974.69
2022-10-19T21:10:43.628Z,100973.29
2022-10-19T21:15:46.837Z,100976.73
2022-10-19T21:20:50.248Z,100963.77
2022-10-19T21:25:54.996Z,100957.79
2022-10-19T21:31:03.437Z,100956.45
2022-10-19T21:36:08.323Z,100954.06
2022-10-19T21:41:15.202Z,100952.92
2022-10-19T21:46:20.627Z,100955.87
2022-10-19T21:51:47.287Z,100959.31
2022-10-19T21:56:51.114Z,100968.63
2022-10-19T22:01:55.514Z,100978.14
2022-10-19T22:07:00.904Z,100971.02
2022-10-19T22:12:04.709Z,100973.63
2022-10-19T22:17:08.044Z,100975.71
2022-10-19T22:22:11.253Z,100979.29
2022-10-19T22:27:14.454Z,100987.93
2022-10-19T22:32:18.073Z,100986.67
2022-10-19T22:37:21.282Z,100993.91
2022-10-19T22:43:21.220Z,100992.04
2022-10-19T22:48:24.531Z,100992.61
2022-10-19T22:53:27.841Z,100997.00
2022-10-19T22:58:31.151Z,100998.05
2022-10-19T23:03:35.190Z,101001.72
2022-10-19T23:08:38.753Z,100999.23
2022-10-19T23:13:42.519Z,100995.00
2022-10-19T23:18:45.831Z,101000.95
2022-10-19T23:23:49.139Z,101002.37
2022-10-19T23:28:52.964Z,100995.05
2022-10-19T23:33:56.379Z,100993.40
2022-10-19T23:38:59.687Z,100996.29
2022-10-19T23:44:03.818Z,101000.77
2022-10-19T23:49:07.130Z,101006.64
2022-10-19T23:54:10.440Z,101010.15
2022-10-19T23:59:13.752Z,101016.05
